createdAt,value
2017-10-25T00:00:16.323Z,6.25
2017-10-25T00:02:43.867Z,6.37
2017-10-25T00:05:11.429Z,5.10
2017-10-25T00:07:38.964Z,4.47
2017-10-25T00:10:06.517Z,4.28
2017-10-25T00:12:34.819Z,3.58
2017-10-25T00:15:02.381Z,3.62
2017-10-25T00:17:29.933Z,3.85
2017-10-25T00:19:57.504Z,3.97
2017-10-25T00:22:25.053Z,3.78
2017-10-25T00:24:52.630Z,3.40
2017-10-25T00:27:20.187Z,3.65
2017-10-25T00:29:47.740Z,4.40
2017-10-25T00:32:15.297Z,4.25
2017-10-25T00:34:42.843Z,5.62
2017-10-25T00:37:10.397Z,7.03
2017-10-25T00:39:38.704Z,4.90
2017-10-25T00:42:06.254Z,3.42
2017-10-25T00:44:33.781Z,3.83
2017-10-25T00:47:02.096Z,2.60
2017-10-25T00:49:29.633Z,3.00
2017-10-25T00:51:57.182Z,3.22
2017-10-25T00:54:25.477Z,2.70
2017-10-25T00:56:53.004Z,2.65
2017-10-25T00:59:21.333Z,2.87
2017-10-25T01:01:48.854Z,2.55
2017-10-25T01:04:17.188Z,2.20
2017-10-25T01:06:44.709Z,2.67
2017-10-25T01:09:12.250Z,2.62
2017-10-25T01:11:40.580Z,1.75
2017-10-25T01:14:08.105Z,3.15
2017-10-25T01:16:35.666Z,2.60
2017-10-25T01:19:03.190Z,2.20
2017-10-25T01:21:30.738Z,2.35
2017-10-25T01:23:58.304Z,1.98
2017-10-25T01:26:25.857Z,2.20
2017-10-25T01:28:53.397Z,1.80
2017-10-25T01:31:20.953Z,1.58
2017-10-25T01:33:48.493Z,1.87
2017-10-25T01:36:16.030Z,1.65
2017-10-25T01:38:43.591Z,1.58
2017-10-25T01:41:11.138Z,1.50
2017-10-25T01:43:41.118Z,1.45
2017-10-25T01:46:08.649Z,1.55
2017-10-25T01:48:36.209Z,1.80
2017-10-25T01:51:03.744Z,1.50
2017-10-25T01:53:31.289Z,2.03
2017-10-25T01:55:59.596Z,1.92
2017-10-25T01:58:27.146Z,2.08
2017-10-25T02:00:54.677Z,2.03
2017-10-25T02:03:22.224Z,2.45
2017-10-25T02:05:49.762Z,2.30
2017-10-25T02:08:17.411Z,3.17
2017-10-25T02:10:44.974Z,3.08
2017-10-25T02:13:12.530Z,2.95
2017-10-25T02:15:40.081Z,2.40
2017-10-25T02:18:07.753Z,2.28
2017-10-25T02:20:35.298Z,2.92
2017-10-25T02:23:02.825Z,2.42
2017-10-25T02:25:31.152Z,3.00
2017-10-25T02:27:58.673Z,2.92
2017-10-25T02:30:26.987Z,3.22
2017-10-25T02:32:55.304Z,2.80
2017-10-25T02:35:22.884Z,2.20
2017-10-25T02:37:50.417Z,2.70
2017-10-25T02:40:18.730Z,3.00
2017-10-25T02:42:46.261Z,2.85
2017-10-25T02:45:13.820Z,3.75
2017-10-25T02:47:41.361Z,2.92
2017-10-25T02:50:09.681Z,2.70
2017-10-25T02:52:37.237Z,2.40
2017-10-25T02:55:04.770Z,2.80
2017-10-25T02:57:32.331Z,2.20
2017-10-25T02:59:59.918Z,2.55
2017-10-25T03:02:27.460Z,2.45
2017-10-25T03:04:55.014Z,2.72
2017-10-25T03:07:22.598Z,2.55
2017-10-25T03:09:50.132Z,2.90
2017-10-25T03:12:17.686Z,2.45
2017-10-25T03:14:46.001Z,2.47
2017-10-25T03:17:14.308Z,2.12
2017-10-25T03:19:41.860Z,2.35
2017-10-25T03:22:09.410Z,4.18
2017-10-25T03:24:36.951Z,2.78
2017-10-25T03:27:05.251Z,2.10
2017-10-25T03:29:32.793Z,2.60
2017-10-25T03:32:00.322Z,2.30
2017-10-25T03:34:27.865Z,2.87
2017-10-25T03:36:55.396Z,2.47
2017-10-25T03:39:22.945Z,2.40
2017-10-25T03:41:50.475Z,2.67
2017-10-25T03:44:18.062Z,2.40
2017-10-25T03:46:46.355Z,2.53
2017-10-25T03:49:13.896Z,2.60
2017-10-25T03:51:41.453Z,2.10
2017-10-25T03:54:08.992Z,2.03
2017-10-25T03:56:36.536Z,2.10
2017-10-25T03:59:04.846Z,3.22
2017-10-25T04:01:32.401Z,2.60
2017-10-25T04:03:59.944Z,2.87
2017-10-25T04:06:27.527Z,2.75
2017-10-25T04:08:55.054Z,2.30
2017-10-25T04:11:23.775Z,2.83
2017-10-25T04:13:51.301Z,2.90
2017-10-25T04:16:19.619Z,3.10
2017-10-25T04:18:47.145Z,2.08
2017-10-25T04:21:14.709Z,1.70
2017-10-25T04:23:43.026Z,2.45
2017-10-25T04:26:11.105Z,2.30
2017-10-25T04:28:38.644Z,1.87
2017-10-25T04:31:07.422Z,2.37
2017-10-25T04:33:35.746Z,2.55
2017-10-25T04:36:03.293Z,2.85
2017-10-25T04:38:30.846Z,2.15
2017-10-25T04:40:58.416Z,2.25
2017-10-25T04:43:25.982Z,2.47
2017-10-25T04:45:53.500Z,2.30
2017-10-25T04:48:21.057Z,3.90
2017-10-25T04:50:48.583Z,2.70
2017-10-25T04:53:16.133Z,2.17
2017-10-25T04:55:43.668Z,2.60
2017-10-25T04:58:11.222Z,2.22
2017-10-25T05:00:38.770Z,2.08
2017-10-25T05:03:06.307Z,2.00
2017-10-25T05:05:33.868Z,1.92
2017-10-25T05:08:01.408Z,2.40
2017-10-25T05:10:29.719Z,2.20
2017-10-25T05:12:57.248Z,2.10
2017-10-25T05:15:24.787Z,2.25
2017-10-25T05:17:52.351Z,2.75
2017-10-25T05:20:19.878Z,2.47
2017-10-25T05:22:47.446Z,2.20
2017-10-25T05:25:14.977Z,2.53
2017-10-25T05:27:42.525Z,2.10
2017-10-25T05:30:10.068Z,2.47
2017-10-25T05:32:37.608Z,2.45
2017-10-25T05:35:05.138Z,2.08
2017-10-25T05:37:33.445Z,1.73
2017-10-25T05:40:00.973Z,2.10
2017-10-25T05:42:29.309Z,2.25
2017-10-25T05:44:56.877Z,2.22
2017-10-25T05:47:24.400Z,2.58
2017-10-25T05:49:51.952Z,2.15
2017-10-25T05:52:19.481Z,3.12
2017-10-25T05:54:47.032Z,3.45
2017-10-25T05:57:14.713Z,2.00
2017-10-25T05:59:43.027Z,2.65
2017-10-25T06:02:10.546Z,3.17
2017-10-25T06:04:38.861Z,2.75
2017-10-25T06:07:06.388Z,3.00
2017-10-25T06:09:34.729Z,3.42
2017-10-25T06:12:02.262Z,3.45
2017-10-25T06:14:29.796Z,4.40
2017-10-25T06:16:58.204Z,4.60
2017-10-25T06:19:25.749Z,3.87
2017-10-25T06:21:53.308Z,4.72
2017-10-25T06:24:20.861Z,4.32
2017-10-25T06:26:48.421Z,4.93
2017-10-25T06:29:15.950Z,4.22
2017-10-25T06:31:43.500Z,4.70
2017-10-25T06:34:11.029Z,4.90
2017-10-25T06:36:38.570Z,4.62
2017-10-25T06:39:06.105Z,5.57
2017-10-25T06:41:34.401Z,5.05
2017-10-25T06:44:01.958Z,4.18
2017-10-25T06:46:29.481Z,3.92
2017-10-25T06:48:57.025Z,5.05
2017-10-25T06:51:24.561Z,4.32
2017-10-25T06:53:52.125Z,4.65
2017-10-25T06:56:19.661Z,4.78
2017-10-25T06:58:47.204Z,4.75
2017-10-25T07:01:15.489Z,5.37
2017-10-25T07:03:43.042Z,4.85
2017-10-25T07:06:11.449Z,5.55
2017-10-25T07:08:39.012Z,5.40
2017-10-25T07:11:06.556Z,5.30
2017-10-25T07:13:34.112Z,4.32
2017-10-25T07:16:01.665Z,5.30
2017-10-25T07:18:29.209Z,4.85
2017-10-25T07:20:57.561Z,4.97
2017-10-25T07:23:25.094Z,4.80
2017-10-25T07:25:52.646Z,4.75
2017-10-25T07:28:20.177Z,5.25
2017-10-25T07:30:47.710Z,4.47
2017-10-25T07:33:15.257Z,3.67
2017-10-25T07:35:42.889Z,4.15
2017-10-25T07:38:10.463Z,5.25
2017-10-25T07:40:38.005Z,4.45
2017-10-25T07:43:05.529Z,3.95
2017-10-25T07:45:33.858Z,4.20
2017-10-25T07:48:01.414Z,3.87
2017-10-25T07:50:28.944Z,3.17
2017-10-25T07:52:56.509Z,3.43
2017-10-25T07:55:24.032Z,3.83
2017-10-25T07:57:51.585Z,3.80
2017-10-25T08:00:19.113Z,2.90
2017-10-25T08:02:46.669Z,3.27
2017-10-25T08:05:14.205Z,3.70
2017-10-25T08:07:41.753Z,3.10
2017-10-25T08:10:09.289Z,3.27
2017-10-25T08:12:36.845Z,2.80
2017-10-25T08:15:04.373Z,3.03
2017-10-25T08:17:31.921Z,3.23
2017-10-25T08:19:59.464Z,3.27
2017-10-25T08:22:27.029Z,2.90
2017-10-25T08:24:54.558Z,3.43
2017-10-25T08:27:22.877Z,2.80
2017-10-25T08:29:50.420Z,3.03
2017-10-25T08:32:18.002Z,2.57
2017-10-25T08:34:45.570Z,2.77
2017-10-25T08:37:13.133Z,2.40
2017-10-25T08:39:40.698Z,2.20
2017-10-25T08:42:09.054Z,2.33
2017-10-25T08:44:36.616Z,2.03
2017-10-25T08:47:04.197Z,2.17
2017-10-25T08:49:31.715Z,2.20
2017-10-25T08:51:59.256Z,2.37
2017-10-25T08:54:27.617Z,1.70
2017-10-25T08:56:55.945Z,2.00
2017-10-25T08:59:23.497Z,2.00
2017-10-25T09:01:51.041Z,1.90
2017-10-25T09:04:19.381Z,1.67
2017-10-25T09:06:47.689Z,1.70
2017-10-25T09:09:15.995Z,1.50
2017-10-25T09:11:43.555Z,1.40
2017-10-25T09:14:11.086Z,1.50
2017-10-25T09:16:39.395Z,1.10
2017-10-25T09:19:06.918Z,1.43
2017-10-25T09:21:35.238Z,1.40
2017-10-25T09:24:02.771Z,1.10
2017-10-25T09:26:30.329Z,0.93
2017-10-25T09:28:58.621Z,1.10
2017-10-25T09:31:26.145Z,1.10
2017-10-25T09:33:54.464Z,0.80
2017-10-25T09:36:22.019Z,0.80
2017-10-25T09:38:49.544Z,1.10
2017-10-25T09:41:17.978Z,0.80
2017-10-25T09:43:45.513Z,0.70
2017-10-25T09:46:13.085Z,0.70
2017-10-25T09:48:40.626Z,0.87
2017-10-25T09:51:08.173Z,0.80
2017-10-25T09:53:35.726Z,0.70
2017-10-25T09:56:04.029Z,0.70
2017-10-25T09:58:31.577Z,0.90
2017-10-25T10:00:59.872Z,0.83
2017-10-25T10:03:27.420Z,0.83
2017-10-25T10:05:54.953Z,0.83
2017-10-25T10:08:23.269Z,0.90
2017-10-25T10:10:50.794Z,0.80
2017-10-25T10:13:19.112Z,0.90
2017-10-25T10:15:46.641Z,1.10
2017-10-25T10:18:14.952Z,0.90
2017-10-25T10:20:42.481Z,0.90
2017-10-25T10:23:10.042Z,0.90
2017-10-25T10:25:37.579Z,1.10
2017-10-25T10:28:05.110Z,0.90
2017-10-25T10:30:32.657Z,0.97
2017-10-25T10:33:00.185Z,0.90
2017-10-25T10:35:27.732Z,0.83
2017-10-25T10:37:56.030Z,1.00
2017-10-25T10:40:23.588Z,0.80
2017-10-25T10:42:51.114Z,1.00
2017-10-25T10:45:19.424Z,0.90
2017-10-25T10:47:46.953Z,0.90
2017-10-25T10:50:15.269Z,0.70
2017-10-25T10:52:42.800Z,0.77
2017-10-25T10:55:11.119Z,0.70
2017-10-25T10:57:38.644Z,0.80
2017-10-25T11:00:06.960Z,0.70
2017-10-25T11:02:34.493Z,0.90
2017-10-25T11:05:02.067Z,0.93
2017-10-25T11:07:29.598Z,0.80
2017-10-25T11:09:58.006Z,0.70
2017-10-25T11:12:25.549Z,0.83
2017-10-25T11:14:53.095Z,0.60
2017-10-25T11:17:21.393Z,0.70
2017-10-25T11:19:48.927Z,0.80
2017-10-25T11:22:17.279Z,0.90
2017-10-25T11:24:44.810Z,0.80
2017-10-25T11:27:12.338Z,0.90
2017-10-25T11:29:39.893Z,0.60
2017-10-25T11:32:08.201Z,0.70
2017-10-25T11:34:35.740Z,0.70
2017-10-25T11:37:03.289Z,0.73
2017-10-25T11:39:31.593Z,0.70
2017-10-25T11:41:59.121Z,0.80
2017-10-25T11:44:27.430Z,0.80
2017-10-25T11:46:54.966Z,0.70
2017-10-25T11:49:22.502Z,0.60
2017-10-25T11:51:50.148Z,0.80
2017-10-25T11:54:17.690Z,0.70
2017-10-25T11:56:45.440Z,0.90
2017-10-25T11:59:13.098Z,0.60
2017-10-25T12:01:40.630Z,0.83
2017-10-25T12:04:08.185Z,0.80
2017-10-25T12:06:35.742Z,0.90
2017-10-25T12:09:03.298Z,0.77
2017-10-25T12:11:30.827Z,0.80
2017-10-25T12:13:58.358Z,1.00
2017-10-25T12:16:26.694Z,0.90
2017-10-25T12:18:54.221Z,0.77
2017-10-25T12:21:21.786Z,0.90
2017-10-25T12:23:49.318Z,0.77
2017-10-25T12:26:17.642Z,1.00
2017-10-25T12:28:45.176Z,0.70
2017-10-25T12:31:12.721Z,0.80
2017-10-25T12:33:41.005Z,0.80
2017-10-25T12:36:08.554Z,0.70
2017-10-25T12:38:36.842Z,0.80
2017-10-25T12:41:04.368Z,0.83
2017-10-25T12:43:31.924Z,0.80
2017-10-25T12:45:59.482Z,0.83
2017-10-25T12:48:27.035Z,0.70
2017-10-25T12:50:54.553Z,0.80
2017-10-25T12:53:22.099Z,1.00
2017-10-25T12:55:49.627Z,0.87
2017-10-25T12:58:17.183Z,0.73
2017-10-25T13:00:44.723Z,0.90
2017-10-25T13:03:13.141Z,0.87
2017-10-25T13:05:40.669Z,4.43
2017-10-25T13:08:08.969Z,0.93
2017-10-25T13:10:44.160Z,0.80
2017-10-25T13:13:16.448Z,1.00
2017-10-25T13:15:55.360Z,0.70
2017-10-25T13:18:24.689Z,1.00
2017-10-25T13:20:52.221Z,0.80
2017-10-25T13:23:19.748Z,0.90
2017-10-25T13:25:47.294Z,0.80
2017-10-25T13:28:14.849Z,0.63
2017-10-25T13:30:42.394Z,0.80
2017-10-25T13:33:09.958Z,0.60
2017-10-25T13:35:37.486Z,0.60
2017-10-25T13:38:05.033Z,0.70
2017-10-25T13:40:34.090Z,0.70
2017-10-25T13:43:01.642Z,0.80
2017-10-25T13:45:29.184Z,0.60
2017-10-25T13:47:56.737Z,1.00
2017-10-25T13:50:25.032Z,0.80
2017-10-25T13:52:52.580Z,0.80
2017-10-25T13:55:20.105Z,0.90
2017-10-25T13:57:49.137Z,0.80
2017-10-25T14:00:16.697Z,0.60
2017-10-25T14:02:44.241Z,0.90
2017-10-25T14:05:12.525Z,0.70
2017-10-25T14:07:40.820Z,1.00
2017-10-25T14:10:08.369Z,0.67
2017-10-25T14:12:35.905Z,0.60
2017-10-25T14:15:04.226Z,0.93
2017-10-25T14:17:31.765Z,0.70
2017-10-25T14:19:59.323Z,0.50
2017-10-25T14:22:26.867Z,0.50
2017-10-25T14:24:55.192Z,0.50
2017-10-25T14:27:34.741Z,0.50
2017-10-25T14:30:02.313Z,0.80
2017-10-25T14:32:29.857Z,0.70
2017-10-25T14:34:57.414Z,0.50
2017-10-25T14:37:24.953Z,0.80
2017-10-25T14:39:52.504Z,0.50
2017-10-25T14:42:20.058Z,0.50
2017-10-25T14:44:48.358Z,0.60
2017-10-25T14:47:15.914Z,0.50
2017-10-25T14:49:43.439Z,0.53
2017-10-25T14:52:11.751Z,0.60
2017-10-25T14:54:39.281Z,0.60
2017-10-25T14:57:07.589Z,0.60
2017-10-25T14:59:35.109Z,0.60
2017-10-25T15:02:03.425Z,0.70
2017-10-25T15:04:30.981Z,0.50
2017-10-25T15:06:58.508Z,0.60
2017-10-25T15:09:26.825Z,0.70
2017-10-25T15:11:54.373Z,0.50
2017-10-25T15:14:21.918Z,0.90
2017-10-25T15:16:50.210Z,1.90
2017-10-25T15:19:17.782Z,0.70
2017-10-25T15:21:45.322Z,0.57
2017-10-25T15:24:12.868Z,0.70
2017-10-25T15:26:41.174Z,0.60
2017-10-25T15:29:08.721Z,0.60
2017-10-25T15:31:36.277Z,0.70
2017-10-25T15:34:03.832Z,0.70
2017-10-25T15:36:31.369Z,0.60
2017-10-25T15:38:58.901Z,0.70
2017-10-25T15:41:26.452Z,0.53
2017-10-25T15:43:53.990Z,0.67
2017-10-25T15:46:22.314Z,0.70
2017-10-25T15:48:49.852Z,0.80
2017-10-25T15:51:17.413Z,0.80
2017-10-25T15:53:45.173Z,0.80
2017-10-25T15:56:12.731Z,0.80
2017-10-25T15:58:40.277Z,0.87
2017-10-25T16:01:07.809Z,1.03
2017-10-25T16:03:35.369Z,1.10
2017-10-25T16:06:03.019Z,0.97
2017-10-25T16:08:30.547Z,0.97
2017-10-25T16:10:58.111Z,0.80
2017-10-25T16:13:25.646Z,1.00
2017-10-25T16:15:53.213Z,1.03
2017-10-25T16:18:21.514Z,1.20
2017-10-25T16:20:49.068Z,1.40
2017-10-25T16:23:16.598Z,1.40
2017-10-25T16:25:44.823Z,1.60
2017-10-25T16:28:12.378Z,1.80
2017-10-25T16:30:39.934Z,1.37
2017-10-25T16:33:07.502Z,1.50
2017-10-25T16:35:35.066Z,1.37
2017-10-25T16:38:02.620Z,1.10
2017-10-25T16:40:30.173Z,1.33
2017-10-25T16:42:57.701Z,1.17
2017-10-25T16:45:25.238Z,1.40
2017-10-25T16:47:53.589Z,1.10
2017-10-25T16:50:21.137Z,1.30
2017-10-25T16:52:48.683Z,1.73
2017-10-25T16:55:16.208Z,1.37
2017-10-25T16:57:44.526Z,1.70
2017-10-25T17:00:12.052Z,1.60
2017-10-25T17:02:40.380Z,2.30
2017-10-25T17:05:07.935Z,3.23
2017-10-25T17:07:35.504Z,2.00
2017-10-25T17:10:03.036Z,2.10
2017-10-25T17:12:30.596Z,1.97
2017-10-25T17:14:58.153Z,2.70
2017-10-25T17:17:25.685Z,2.23
2017-10-25T17:19:53.270Z,3.30
2017-10-25T17:22:20.809Z,3.60
2017-10-25T17:24:48.362Z,3.60
2017-10-25T17:27:15.902Z,3.97
2017-10-25T17:29:43.458Z,3.30
2017-10-25T17:32:10.996Z,3.10
2017-10-25T17:34:39.302Z,2.60
2017-10-25T17:37:06.869Z,2.40
2017-10-25T17:39:34.418Z,3.00
2017-10-25T17:42:02.740Z,2.80
2017-10-25T17:44:30.334Z,3.43
2017-10-25T17:46:58.674Z,3.43
2017-10-25T17:49:26.324Z,3.78
2017-10-25T17:51:53.858Z,3.63
2017-10-25T17:54:22.184Z,4.07
2017-10-25T17:56:50.517Z,3.75
2017-10-25T17:59:18.082Z,4.00
2017-10-25T18:01:46.223Z,5.28
2017-10-25T18:04:13.788Z,5.20
2017-10-25T18:06:41.342Z,5.37
2017-10-25T18:09:09.653Z,4.60
2017-10-25T18:11:37.196Z,4.53
2017-10-25T18:14:04.753Z,4.30
2017-10-25T18:16:32.326Z,4.50
2017-10-25T18:18:59.892Z,3.57
2017-10-25T18:21:28.236Z,4.37
2017-10-25T18:23:55.788Z,5.43
2017-10-25T18:26:23.337Z,5.37
2017-10-25T18:28:50.893Z,5.10
2017-10-25T18:31:18.425Z,5.50
2017-10-25T18:33:45.979Z,6.40
2017-10-25T18:36:13.554Z,5.78
2017-10-25T18:38:41.097Z,6.30
2017-10-25T18:41:08.660Z,6.90
2017-10-25T18:43:36.216Z,7.22
2017-10-25T18:46:03.747Z,6.63
2017-10-25T18:48:32.093Z,8.53
2017-10-25T18:50:59.630Z,10.50
2017-10-25T18:53:27.208Z,9.80
2017-10-25T18:55:54.750Z,11.02
2017-10-25T18:58:22.318Z,10.50
2017-10-25T19:00:49.857Z,9.90
2017-10-25T19:03:17.433Z,10.18
2017-10-25T19:05:44.981Z,9.77
2017-10-25T19:08:12.540Z,8.60
2017-10-25T19:10:40.089Z,9.23
2017-10-25T19:13:07.636Z,12.50
2017-10-25T19:15:35.218Z,13.10
2017-10-25T19:18:02.758Z,14.37
2017-10-25T19:20:30.332Z,13.77
2017-10-25T19:22:57.978Z,13.70
2017-10-25T19:25:25.530Z,13.75
2017-10-25T19:27:53.076Z,14.40
2017-10-25T19:30:21.418Z,15.37
2017-10-25T19:32:48.958Z,15.80
2017-10-25T19:35:16.525Z,17.50
2017-10-25T19:37:44.090Z,17.00
2017-10-25T19:40:11.638Z,16.53
2017-10-25T19:42:39.201Z,15.55
2017-10-25T19:45:06.769Z,15.50
2017-10-25T19:47:34.328Z,17.15
2017-10-25T19:50:01.876Z,15.30
2017-10-25T19:52:29.453Z,15.43
2017-10-25T19:54:57.018Z,15.73
2017-10-25T19:57:24.625Z,17.27
2017-10-25T19:59:52.227Z,15.25
2017-10-25T20:02:19.793Z,16.55
2017-10-25T20:04:47.365Z,14.48
2017-10-25T20:07:14.946Z,16.97
2017-10-25T20:09:42.521Z,16.67
2017-10-25T20:12:10.857Z,17.50
2017-10-25T20:14:38.465Z,17.25
2017-10-25T20:17:06.038Z,16.25
2017-10-25T20:19:33.599Z,17.50
2017-10-25T20:22:01.159Z,17.33
2017-10-25T20:24:30.672Z,17.37
2017-10-25T20:26:58.230Z,18.55
2017-10-25T20:29:26.075Z,16.48
2017-10-25T20:31:53.629Z,18.90
2017-10-25T20:34:21.178Z,18.42
2017-10-25T20:36:48.735Z,19.08
2017-10-25T20:39:16.291Z,16.45
2017-10-25T20:41:44.157Z,19.70
2017-10-25T20:44:13.196Z,17.85
2017-10-25T20:46:41.069Z,17.60
2017-10-25T20:49:08.605Z,18.27
2017-10-25T20:51:36.164Z,16.85
2017-10-25T20:54:03.705Z,17.27
2017-10-25T20:56:32.030Z,16.80
2017-10-25T20:58:59.648Z,16.35
2017-10-25T21:01:27.218Z,16.60
2017-10-25T21:03:54.790Z,19.05
2017-10-25T21:06:22.367Z,19.45
2017-10-25T21:08:50.708Z,17.08
2017-10-25T21:11:19.751Z,18.62
2017-10-25T21:13:47.317Z,19.15
2017-10-25T21:16:14.873Z,17.97
2017-10-25T21:18:42.775Z,20.10
2017-10-25T21:21:10.334Z,20.52
2017-10-25T21:23:37.911Z,20.85
2017-10-25T21:26:05.458Z,18.73
2017-10-25T21:28:33.031Z,18.48
2017-10-25T21:31:00.576Z,18.85
2017-10-25T21:33:28.140Z,16.83
2017-10-25T21:35:55.701Z,18.90
2017-10-25T21:38:23.262Z,18.45
2017-10-25T21:40:50.901Z,17.37
2017-10-25T21:43:18.459Z,17.87
2017-10-25T21:45:46.026Z,17.90
2017-10-25T21:48:13.567Z,18.33
2017-10-25T21:50:41.148Z,16.52
2017-10-25T21:53:08.700Z,20.60
2017-10-25T21:55:36.242Z,17.73
2017-10-25T21:58:03.806Z,18.52
2017-10-25T22:00:31.358Z,15.07
2017-10-25T22:02:58.960Z,17.50
2017-10-25T22:05:26.512Z,16.98
2017-10-25T22:07:54.061Z,17.40
2017-10-25T22:10:21.614Z,18.65
2017-10-25T22:12:49.174Z,18.07
2017-10-25T22:15:16.717Z,17.33
2017-10-25T22:17:44.299Z,19.40
2017-10-25T22:20:11.843Z,17.92
2017-10-25T22:22:39.405Z,18.80
2017-10-25T22:25:06.984Z,18.15
2017-10-25T22:27:34.544Z,18.57
2017-10-25T22:30:02.096Z,18.87
2017-10-25T22:32:29.660Z,17.10
2017-10-25T22:34:57.210Z,19.05
2017-10-25T22:37:24.782Z,20.25
2017-10-25T22:39:52.350Z,18.40
2017-10-25T22:42:19.897Z,17.37
2017-10-25T22:44:47.441Z,18.30
2017-10-25T22:47:15.005Z,19.05
2017-10-25T22:49:42.549Z,17.45
2017-10-25T22:52:10.125Z,17.25
2017-10-25T22:54:37.673Z,17.23
2017-10-25T22:57:05.229Z,17.52
2017-10-25T22:59:32.764Z,17.10
2017-10-25T23:02:00.328Z,18.52
2017-10-25T23:04:27.896Z,16.98
2017-10-25T23:06:56.206Z,17.25
2017-10-25T23:09:23.782Z,16.90
2017-10-25T23:11:51.330Z,16.55
2017-10-25T23:14:18.902Z,16.08
2017-10-25T23:16:46.453Z,15.93
2017-10-25T23:19:14.037Z,14.23
2017-10-25T23:21:41.577Z,16.45
2017-10-25T23:24:09.146Z,19.25
2017-10-25T23:26:36.710Z,16.00
2017-10-25T23:29:04.278Z,14.90
2017-10-25T23:31:31.821Z,16.10
2017-10-25T23:33:59.358Z,15.68
2017-10-25T23:36:26.928Z,15.88
2017-10-25T23:38:54.469Z,14.95
2017-10-25T23:41:22.025Z,18.10
2017-10-25T23:43:49.564Z,19.10
2017-10-25T23:46:17.914Z,17.58
2017-10-25T23:48:45.481Z,16.25
2017-10-25T23:51:13.830Z,16.23
2017-10-25T23:53:41.401Z,14.65
2017-10-25T23:56:08.974Z,14.63
2017-10-25T23:58:36.524Z,15.18
